createdAt,value
2023-01-02T00:00:31.937Z,100832.41
2023-01-02T00:02:59.661Z,100825.09
2023-01-02T00:05:27.694Z,100836.03
2023-01-02T00:07:55.241Z,100829.34
2023-01-02T00:10:22.888Z,100831.97
2023-01-02T00:12:50.257Z,100831.69
2023-01-02T00:15:17.603Z,100820.69
2023-01-02T00:17:45.235Z,100817.47
2023-01-02T00:20:12.620Z,100817.97
2023-01-02T00:22:39.978Z,100826.38
2023-01-02T00:25:07.839Z,100823.59
2023-01-02T00:27:35.217Z,100822.34
2023-01-02T00:30:02.753Z,100817.19
2023-01-02T00:32:30.692Z,100817.75
2023-01-02T00:34:58.050Z,100818.16
2023-01-02T00:37:25.714Z,100830.25
2023-01-02T00:39:53.359Z,100824.44
2023-01-02T00:42:20.730Z,100835.25
2023-01-02T00:44:48.110Z,100822.06
2023-01-02T00:47:15.747Z,100824.00
2023-01-02T00:49:43.680Z,100833.34
2023-01-02T00:52:11.042Z,100831.97
2023-01-02T00:54:38.664Z,100831.69
2023-01-02T00:57:06.105Z,100835.19
2023-01-02T00:59:34.074Z,100832.25
2023-01-02T01:02:01.758Z,100828.06
2023-01-02T01:04:29.225Z,100828.22
2023-01-02T01:06:56.692Z,100826.69
2023-01-02T01:09:24.309Z,100822.31
2023-01-02T01:11:52.115Z,100829.97
2023-01-02T01:14:19.484Z,100826.19
2023-01-02T01:16:47.130Z,100832.00
2023-01-02T01:19:14.659Z,100832.41
2023-01-02T01:21:42.103Z,100832.75
2023-01-02T01:24:10.395Z,100828.47
2023-01-02T01:26:37.743Z,100830.44
2023-01-02T01:29:05.225Z,100832.28
2023-01-02T01:31:32.936Z,100819.16
2023-01-02T01:34:00.292Z,100819.94
2023-01-02T01:36:27.730Z,100813.69
2023-01-02T01:38:55.486Z,100822.88
2023-01-02T01:41:23.846Z,100806.00
2023-01-02T01:43:55.035Z,100800.56
2023-01-02T01:46:37.420Z,100798.16
2023-01-02T01:49:13.961Z,100795.22
2023-01-02T01:52:06.350Z,100787.69
2023-01-02T01:54:38.826Z,100790.19
2023-01-02T01:57:23.060Z,100785.84
2023-01-02T01:59:50.403Z,100780.50
2023-01-02T02:02:18.207Z,100775.28
2023-01-02T02:04:46.042Z,100776.66
2023-01-02T02:07:13.417Z,100775.19
2023-01-02T02:09:49.138Z,100774.09
2023-01-02T02:12:19.701Z,100780.59
2023-01-02T02:14:50.607Z,100762.56
2023-01-02T02:17:41.211Z,100781.94
2023-01-02T02:20:20.484Z,100769.41
2023-01-02T02:23:06.894Z,100769.69
2023-01-02T02:25:55.826Z,100773.78
2023-01-02T02:28:39.447Z,100764.25
2023-01-02T02:31:22.017Z,100759.22
2023-01-02T02:33:59.198Z,100751.47
2023-01-02T02:36:45.295Z,100742.72
2023-01-02T02:39:24.901Z,100749.00
2023-01-02T02:42:26.070Z,100756.16
2023-01-02T02:45:02.014Z,100749.31
2023-01-02T02:47:51.586Z,100762.44
2023-01-02T02:50:37.404Z,100754.19
2023-01-02T02:53:09.167Z,100760.66
2023-01-02T02:55:43.923Z,100744.41
2023-01-02T02:58:12.358Z,100746.41
2023-01-02T03:00:40.032Z,100754.75
2023-01-02T03:03:21.710Z,100740.06
2023-01-02T03:06:18.559Z,100751.25
2023-01-02T03:09:13.706Z,100743.59
2023-01-02T03:12:23.355Z,100746.25
2023-01-02T03:15:15.533Z,100734.75
2023-01-02T03:17:54.593Z,100743.00
2023-01-02T03:20:23.227Z,100738.13
2023-01-02T03:22:53.097Z,100737.88
2023-01-02T03:25:20.858Z,100739.94
2023-01-02T03:27:48.286Z,100745.25
2023-01-02T03:30:22.299Z,100740.75
2023-01-02T03:32:54.543Z,100735.59
2023-01-02T03:35:28.172Z,100725.59
2023-01-02T03:37:57.032Z,100737.81
2023-01-02T03:40:45.878Z,100744.47
2023-01-02T03:43:16.763Z,100745.97
2023-01-02T03:45:48.499Z,100741.22
2023-01-02T03:48:34.243Z,100741.94
2023-01-02T03:51:01.878Z,100744.00
2023-01-02T03:53:29.236Z,100744.28
2023-01-02T03:56:08.929Z,100752.37
2023-01-02T03:58:57.588Z,100750.53
2023-01-02T04:01:49.641Z,100753.81
2023-01-02T04:04:38.794Z,100756.19
2023-01-02T04:07:08.750Z,100741.19
2023-01-02T04:09:36.419Z,100753.66
2023-01-02T04:12:08.563Z,100740.09
2023-01-02T04:14:38.940Z,100746.09
2023-01-02T04:17:08.320Z,100751.41
2023-01-02T04:19:38.976Z,100746.09
2023-01-02T04:22:10.136Z,100730.88
2023-01-02T04:24:40.507Z,100733.94
2023-01-02T04:27:23.349Z,100746.47
2023-01-02T04:29:50.961Z,100743.28
2023-01-02T04:32:43.929Z,100761.09
2023-01-02T04:35:16.963Z,100748.63
2023-01-02T04:37:44.580Z,100762.69
2023-01-02T04:40:26.170Z,100766.50
2023-01-02T04:42:53.647Z,100761.41
2023-01-02T04:45:21.364Z,100761.22
2023-01-02T04:47:48.872Z,100771.75
2023-01-02T04:50:16.340Z,100765.13
2023-01-02T04:52:43.922Z,100761.72
2023-01-02T04:55:11.377Z,100760.50
2023-01-02T04:57:38.789Z,100754.97
2023-01-02T05:00:07.299Z,100767.84
2023-01-02T05:02:36.374Z,100761.91
2023-01-02T05:05:04.217Z,100771.22
2023-01-02T05:07:33.657Z,100763.94
2023-01-02T05:10:01.142Z,100763.66
2023-01-02T05:12:28.481Z,100752.37
2023-01-02T05:14:56.120Z,100761.69
2023-01-02T05:17:23.526Z,100759.91
2023-01-02T05:19:50.877Z,100759.69
2023-01-02T05:22:37.286Z,100771.91
2023-01-02T05:25:05.823Z,100757.12
2023-01-02T05:27:34.003Z,100748.47
2023-01-02T05:30:01.383Z,100746.69
2023-01-02T05:32:28.721Z,100745.69
2023-01-02T05:34:57.395Z,100750.41
2023-01-02T05:37:24.787Z,100743.47
2023-01-02T05:39:52.154Z,100762.63
2023-01-02T05:42:19.763Z,100755.91
2023-01-02T05:44:47.330Z,100762.37
2023-01-02T05:47:16.552Z,100754.19
2023-01-02T05:49:44.469Z,100744.16
2023-01-02T05:52:11.913Z,100745.25
2023-01-02T05:54:39.295Z,100747.34
2023-01-02T05:57:06.965Z,100749.03
2023-01-02T05:59:36.258Z,100744.69
2023-01-02T06:02:04.029Z,100754.59
2023-01-02T06:04:31.716Z,100754.47
2023-01-02T06:06:59.351Z,100749.03
2023-01-02T06:09:26.819Z,100750.97
2023-01-02T06:11:54.443Z,100752.34
2023-01-02T06:14:24.040Z,100754.59
2023-01-02T06:16:51.403Z,100747.78
2023-01-02T06:19:19.005Z,100756.44
2023-01-02T06:21:46.847Z,100750.59
2023-01-02T06:24:14.204Z,100751.25
2023-01-02T06:26:41.799Z,100746.53
2023-01-02T06:29:09.179Z,100742.25
2023-01-02T06:31:39.720Z,100745.69
2023-01-02T06:34:07.657Z,100750.31
2023-01-02T06:36:35.036Z,100742.63
2023-01-02T06:39:02.499Z,100747.62
2023-01-02T06:41:30.183Z,100751.56
2023-01-02T06:43:57.561Z,100769.53
2023-01-02T06:46:25.142Z,100762.22
2023-01-02T06:48:52.784Z,100765.13
2023-01-02T06:51:21.722Z,100757.53
2023-01-02T06:53:49.180Z,100744.25
2023-01-02T06:56:17.425Z,100758.66
2023-01-02T06:58:44.907Z,100761.06
2023-01-02T07:01:22.454Z,100761.69
2023-01-02T07:03:50.270Z,100765.25
2023-01-02T07:06:19.551Z,100774.41
2023-01-02T07:08:47.289Z,100768.56
2023-01-02T07:11:16.781Z,100773.28
2023-01-02T07:13:45.733Z,100778.19
2023-01-02T07:16:14.711Z,100790.34
2023-01-02T07:18:42.471Z,100778.97
2023-01-02T07:21:10.211Z,100777.22
2023-01-02T07:23:37.635Z,100771.25
2023-01-02T07:26:05.905Z,100778.91
2023-01-02T07:28:33.457Z,100779.19
2023-01-02T07:31:02.363Z,100794.19
2023-01-02T07:33:30.260Z,100793.37
2023-01-02T07:36:02.012Z,100779.19
2023-01-02T07:38:29.666Z,100783.09
2023-01-02T07:40:57.061Z,100776.69
2023-01-02T07:43:24.463Z,100774.38
2023-01-02T07:45:52.163Z,100767.06
2023-01-02T07:48:19.761Z,100769.53
2023-01-02T07:50:47.108Z,100761.69
2023-01-02T07:53:14.726Z,100788.44
2023-01-02T07:55:42.130Z,100779.47
2023-01-02T07:58:09.484Z,100769.66
2023-01-02T08:00:37.275Z,100772.53
2023-01-02T08:03:06.046Z,100777.53
2023-01-02T08:05:34.258Z,100776.81
2023-01-02T08:08:01.595Z,100788.00
2023-01-02T08:10:29.221Z,100784.81
2023-01-02T08:12:57.451Z,100767.47
2023-01-02T08:15:25.401Z,100771.78
2023-01-02T08:17:53.119Z,100763.81
2023-01-02T08:20:20.468Z,100770.41
2023-01-02T08:22:47.870Z,100774.56
2023-01-02T08:25:16.733Z,100769.00
2023-01-02T08:27:44.183Z,100781.09
2023-01-02T08:30:11.842Z,100779.09
2023-01-02T08:32:39.828Z,100775.97
2023-01-02T08:35:07.647Z,100784.19
2023-01-02T08:37:35.126Z,100778.63
2023-01-02T08:40:02.856Z,100771.12
2023-01-02T08:42:30.254Z,100780.56
2023-01-02T08:44:57.729Z,100784.91
2023-01-02T08:47:25.412Z,100780.16
2023-01-02T08:49:52.952Z,100787.25
2023-01-02T08:52:20.324Z,100780.63
2023-01-02T08:54:47.916Z,100783.34
2023-01-02T08:57:15.273Z,100789.56
2023-01-02T08:59:42.638Z,100781.81
2023-01-02T09:02:14.421Z,100787.34
2023-01-02T09:04:41.939Z,100782.13
2023-01-02T09:07:09.717Z,100779.53
2023-01-02T09:09:37.188Z,100793.09
2023-01-02T09:12:04.814Z,100780.63
2023-01-02T09:14:32.499Z,100777.88
2023-01-02T09:16:59.937Z,100775.13
2023-01-02T09:19:27.393Z,100778.56
2023-01-02T09:21:55.135Z,100768.91
2023-01-02T09:24:22.473Z,100772.06
2023-01-02T09:26:49.897Z,100768.87
2023-01-02T09:29:17.609Z,100776.13
2023-01-02T09:31:45.062Z,100772.19
2023-01-02T09:34:12.614Z,100774.59
2023-01-02T09:36:40.269Z,100764.41
2023-01-02T09:39:08.841Z,100756.69
2023-01-02T09:41:37.185Z,100756.44
2023-01-02T09:44:27.425Z,100758.59
2023-01-02T09:46:54.699Z,100750.81
2023-01-02T09:49:24.476Z,100752.88
2023-01-02T09:51:51.943Z,100751.00
2023-01-02T09:54:26.808Z,100742.66
2023-01-02T09:57:14.530Z,100730.56
2023-01-02T10:00:04.829Z,100731.19
2023-01-02T10:02:56.741Z,100732.91
2023-01-02T10:05:42.874Z,100731.72
2023-01-02T10:08:37.890Z,100723.16
2023-01-02T10:11:17.613Z,100729.13
2023-01-02T10:16:44.868Z,100729.16
2023-01-02T10:19:42.898Z,100726.31
2023-01-02T10:22:13.718Z,100721.63
2023-01-02T10:25:18.933Z,100718.00
2023-01-02T10:27:49.776Z,100705.50
2023-01-02T10:30:24.851Z,100703.50
2023-01-02T10:32:58.631Z,100703.06
2023-01-02T10:35:32.857Z,100701.00
2023-01-02T10:38:00.666Z,100694.59
2023-01-02T10:40:28.090Z,100695.28
2023-01-02T10:42:59.888Z,100695.97
2023-01-02T10:45:27.896Z,100691.97
2023-01-02T10:47:55.248Z,100676.41
2023-01-02T10:50:25.503Z,100670.44
2023-01-02T10:52:54.502Z,100668.03
2023-01-02T10:55:37.521Z,100668.09
2023-01-02T10:58:06.567Z,100658.31
2023-01-02T11:00:35.331Z,100660.44
2023-01-02T11:03:12.783Z,100656.84
2023-01-02T11:05:48.352Z,100652.53
2023-01-02T11:08:17.803Z,100655.81
2023-01-02T11:10:45.592Z,100657.69
2023-01-02T11:13:14.719Z,100649.00
2023-01-02T11:15:58.255Z,100656.19
2023-01-02T11:18:27.278Z,100650.25
2023-01-02T11:20:56.968Z,100635.19
2023-01-02T11:23:25.488Z,100638.75
2023-01-02T11:25:53.175Z,100643.87
2023-01-02T11:28:25.711Z,100638.31
2023-01-02T11:30:54.566Z,100642.34
2023-01-02T11:33:24.844Z,100630.59
2023-01-02T11:36:04.560Z,100631.28
2023-01-02T11:38:44.061Z,100626.31
2023-01-02T11:41:25.817Z,100623.66
2023-01-02T11:43:57.276Z,100616.16
2023-01-02T11:46:30.026Z,100608.41
2023-01-02T11:49:07.689Z,100603.53
2023-01-02T11:51:35.798Z,100606.19
2023-01-02T11:54:05.023Z,100600.47
2023-01-02T11:56:34.926Z,100593.25
2023-01-02T11:59:11.957Z,100588.09
2023-01-02T12:01:48.258Z,100585.19
2023-01-02T12:04:16.068Z,100588.22
2023-01-02T12:07:27.941Z,100587.13
2023-01-02T12:10:08.850Z,100572.53
2023-01-02T12:12:36.091Z,100584.03
2023-01-02T12:15:06.561Z,100575.41
2023-01-02T12:17:39.634Z,100571.28
2023-01-02T12:20:30.516Z,100568.47
2023-01-02T12:23:34.315Z,100569.41
2023-01-02T12:26:09.685Z,100565.03
2023-01-02T12:28:55.763Z,100563.63
2023-01-02T12:31:29.307Z,100566.72
2023-01-02T12:34:20.758Z,100561.25
2023-01-02T12:37:10.307Z,100561.47
2023-01-02T12:39:54.326Z,100569.34
2023-01-02T12:43:01.742Z,100559.47
2023-01-02T12:45:59.971Z,100552.34
2023-01-02T12:48:54.958Z,100546.38
2023-01-02T12:51:47.228Z,100546.00
2023-01-02T12:54:36.608Z,100535.56
2023-01-02T12:57:24.334Z,100537.31
2023-01-02T13:00:16.448Z,100537.00
2023-01-02T13:03:00.228Z,100537.34
2023-01-02T13:05:31.323Z,100527.06
2023-01-02T13:08:19.793Z,100536.53
2023-01-02T13:10:47.452Z,100533.69
2023-01-02T13:13:14.826Z,100532.03
2023-01-02T13:15:44.262Z,100537.97
2023-01-02T13:18:24.082Z,100535.34
2023-01-02T13:20:53.726Z,100542.47
2023-01-02T13:23:43.920Z,100530.28
2023-01-02T13:26:13.134Z,100527.88
2023-01-02T13:28:54.312Z,100525.72
2023-01-02T13:31:48.581Z,100533.06
2023-01-02T13:34:25.883Z,100537.38
2023-01-02T13:37:10.200Z,100529.19
2023-01-02T13:39:40.684Z,100524.72
2023-01-02T13:42:38.581Z,100525.72
2023-01-02T13:45:14.452Z,100522.06
2023-01-02T13:47:50.998Z,100523.03
2023-01-02T13:50:25.320Z,100525.88
2023-01-02T13:53:20.861Z,100527.03
2023-01-02T13:56:12.620Z,100523.06
2023-01-02T13:58:41.904Z,100520.56
2023-01-02T14:01:21.603Z,100532.88
2023-01-02T14:04:07.731Z,100529.88
2023-01-02T14:06:53.371Z,100524.66
2023-01-02T14:09:22.424Z,100537.63
2023-01-02T14:11:59.741Z,100536.69
2023-01-02T14:14:44.708Z,100539.69
2023-01-02T14:17:15.270Z,100535.19
2023-01-02T14:19:43.625Z,100531.87
2023-01-02T14:22:13.228Z,100535.87
2023-01-02T14:24:50.252Z,100536.56
2023-01-02T14:27:32.310Z,100530.53
2023-01-02T14:30:08.747Z,100525.53
2023-01-02T14:32:40.838Z,100531.03
2023-01-02T14:35:23.452Z,100542.00
2023-01-02T14:37:54.953Z,100547.31
2023-01-02T14:40:22.116Z,100548.38
2023-01-02T14:43:11.993Z,100547.59
2023-01-02T14:45:44.729Z,100549.75
2023-01-02T14:48:15.593Z,100552.53
2023-01-02T14:50:43.471Z,100545.06
2023-01-02T14:53:20.163Z,100552.03
2023-01-02T14:55:47.789Z,100546.72
2023-01-02T14:58:22.408Z,100545.56
2023-01-02T15:00:50.046Z,100554.81
2023-01-02T15:03:17.832Z,100555.47
2023-01-02T15:05:49.682Z,100541.72
2023-01-02T15:08:20.163Z,100542.91
2023-01-02T15:11:35.556Z,100540.06
2023-01-02T15:14:06.227Z,100543.59
2023-01-02T15:16:38.258Z,100547.84
2023-01-02T15:19:05.932Z,100542.88
2023-01-02T15:21:34.302Z,100542.69
2023-01-02T15:24:04.065Z,100542.34
2023-01-02T15:26:35.880Z,100539.97
2023-01-02T15:29:05.166Z,100544.06
2023-01-02T15:31:33.089Z,100538.47
2023-01-02T15:34:00.679Z,100540.72
2023-01-02T15:36:37.880Z,100542.81
2023-01-02T15:39:14.244Z,100550.81
2023-01-02T15:41:43.609Z,100553.72
2023-01-02T15:44:30.198Z,100555.03
2023-01-02T15:46:57.710Z,100550.16
2023-01-02T15:49:25.253Z,100555.31
2023-01-02T15:51:52.681Z,100557.06
2023-01-02T15:54:20.169Z,100554.94
2023-01-02T15:56:47.798Z,100558.34
2023-01-02T15:59:30.233Z,100569.59
2023-01-02T16:01:57.966Z,100569.91
2023-01-02T16:04:30.103Z,100564.22
2023-01-02T16:06:58.419Z,100562.47
2023-01-02T16:09:27.924Z,100573.81
2023-01-02T16:11:57.391Z,100574.38
2023-01-02T16:14:37.232Z,100557.72
2023-01-02T16:17:05.647Z,100572.59
2023-01-02T16:19:34.302Z,100562.75
2023-01-02T16:22:10.748Z,100564.25
2023-01-02T16:24:42.312Z,100573.78
2023-01-02T16:27:13.454Z,100570.62
2023-01-02T16:29:42.480Z,100580.22
2023-01-02T16:32:27.177Z,100577.84
2023-01-02T16:35:18.289Z,100575.06
2023-01-02T16:37:55.611Z,100575.72
2023-01-02T16:41:00.555Z,100575.28
2023-01-02T16:43:16.294Z,100582.63
2023-01-02T16:45:44.223Z,100580.28
2023-01-02T16:48:13.920Z,100582.69
2023-01-02T16:50:42.722Z,100574.72
2023-01-02T16:53:12.907Z,100577.81
2023-01-02T16:55:40.367Z,100581.72
2023-01-02T16:58:07.747Z,100584.78
2023-01-02T17:00:41.370Z,100586.47
2023-01-02T17:03:18.683Z,100592.34
2023-01-02T17:06:07.553Z,100583.97
2023-01-02T17:08:34.964Z,100584.44
2023-01-02T17:11:02.662Z,100582.19
2023-01-02T17:13:30.001Z,100596.66
2023-01-02T17:15:57.815Z,100591.47
2023-01-02T17:18:25.628Z,100591.50
2023-01-02T17:20:52.982Z,100586.56
2023-01-02T17:23:21.082Z,100589.06
2023-01-02T17:25:48.821Z,100590.47
2023-01-02T17:28:16.330Z,100586.66
2023-01-02T17:30:44.522Z,100596.25
2023-01-02T17:33:13.286Z,100590.88
2023-01-02T17:35:40.751Z,100587.22
2023-01-02T17:38:08.139Z,100589.91
2023-01-02T17:40:37.244Z,100599.16
2023-01-02T17:43:04.927Z,100595.41
2023-01-02T17:45:32.430Z,100602.63
2023-01-02T17:48:07.417Z,100600.50
2023-01-02T17:50:37.814Z,100590.94
2023-01-02T17:53:07.928Z,100590.09
2023-01-02T17:55:35.351Z,100590.34
2023-01-02T17:58:03.887Z,100587.06
2023-01-02T18:00:31.573Z,100591.28
2023-01-02T18:02:59.353Z,100593.78
2023-01-02T18:05:26.769Z,100586.50
2023-01-02T18:07:54.123Z,100586.75
2023-01-02T18:10:23.054Z,100578.75
2023-01-02T18:12:53.539Z,100581.12
2023-01-02T18:15:21.900Z,100583.63
2023-01-02T18:17:49.646Z,100590.19
2023-01-02T18:20:19.071Z,100586.84
2023-01-02T18:22:49.888Z,100583.16
2023-01-02T18:25:19.359Z,100582.03
2023-01-02T18:27:47.566Z,100581.06
2023-01-02T18:30:23.652Z,100572.31
2023-01-02T18:32:57.352Z,100580.34
2023-01-02T18:35:56.846Z,100586.84
2023-01-02T18:38:38.050Z,100592.75
2023-01-02T18:41:23.984Z,100580.16
2023-01-02T18:43:54.989Z,100578.97
2023-01-02T18:47:02.161Z,100583.00
2023-01-02T18:49:22.015Z,100586.06
2023-01-02T18:51:54.715Z,100583.16
2023-01-02T18:54:28.882Z,100582.03
2023-01-02T18:56:59.082Z,100577.59
2023-01-02T18:59:29.427Z,100583.28
2023-01-02T19:02:00.809Z,100585.28
2023-01-02T19:04:35.161Z,100581.06
2023-01-02T19:07:16.632Z,100575.44
2023-01-02T19:09:44.241Z,100578.22
2023-01-02T19:12:33.118Z,100587.53
2023-01-02T19:15:22.651Z,100580.47
2023-01-02T19:17:50.071Z,100584.19
2023-01-02T19:20:17.741Z,100589.69
2023-01-02T19:22:45.072Z,100585.19
2023-01-02T19:25:19.001Z,100592.16
2023-01-02T19:27:46.601Z,100582.84
2023-01-02T19:30:29.937Z,100579.69
2023-01-02T19:32:57.833Z,100585.22
2023-01-02T19:35:25.020Z,100584.50
2023-01-02T19:37:52.449Z,100586.47
2023-01-02T19:40:21.599Z,100584.88
2023-01-02T19:42:53.136Z,100585.56
2023-01-02T19:45:24.622Z,100590.78
2023-01-02T19:47:52.518Z,100591.09
2023-01-02T19:50:25.375Z,100596.69
2023-01-02T19:52:53.262Z,100606.81
2023-01-02T19:55:20.661Z,100598.44
2023-01-02T19:57:48.501Z,100604.09
2023-01-02T20:00:16.899Z,100607.41
2023-01-02T20:02:52.235Z,100605.72
2023-01-02T20:05:22.523Z,100607.94
2023-01-02T20:07:51.915Z,100615.84
2023-01-02T20:10:19.265Z,100615.66
2023-01-02T20:12:46.671Z,100616.31
2023-01-02T20:15:19.562Z,100616.75
2023-01-02T20:17:47.170Z,100612.59
2023-01-02T20:20:19.847Z,100612.94
2023-01-02T20:22:47.484Z,100612.47
2023-01-02T20:25:15.787Z,100612.38
2023-01-02T20:27:43.128Z,100606.72
2023-01-02T20:30:11.361Z,100611.16
2023-01-02T20:32:39.013Z,100610.75
2023-01-02T20:35:06.603Z,100610.03
2023-01-02T20:37:34.382Z,100618.22
2023-01-02T20:40:02.004Z,100618.41
2023-01-02T20:42:29.457Z,100617.38
2023-01-02T20:44:56.819Z,100622.41
2023-01-02T20:47:24.445Z,100615.00
2023-01-02T20:49:51.843Z,100617.97
2023-01-02T20:52:20.335Z,100612.78
2023-01-02T20:57:18.281Z,100615.00
2023-01-02T20:59:45.796Z,100624.22
2023-01-02T21:02:13.589Z,100625.88
2023-01-02T21:04:41.059Z,100614.72
2023-01-02T21:07:08.607Z,100618.31
2023-01-02T21:09:36.227Z,100615.81
2023-01-02T21:12:03.795Z,100618.31
2023-01-02T21:14:37.379Z,100616.19
2023-01-02T21:17:05.495Z,100624.75
2023-01-02T21:19:33.021Z,100624.69
2023-01-02T21:22:00.513Z,100619.84
2023-01-02T21:24:28.137Z,100625.41
2023-01-02T21:26:55.538Z,100630.41
2023-01-02T21:29:22.921Z,100626.81
2023-01-02T21:31:50.613Z,100627.94
2023-01-02T21:34:18.180Z,100635.44
2023-01-02T21:36:45.611Z,100641.28
2023-01-02T21:39:13.263Z,100649.41
2023-01-02T21:42:00.152Z,100645.59
2023-01-02T21:44:27.721Z,100648.44
2023-01-02T21:46:55.244Z,100649.09
2023-01-02T21:49:22.668Z,100648.81
2023-01-02T21:51:52.664Z,100641.72
2023-01-02T21:54:20.055Z,100641.94
2023-01-02T21:56:47.474Z,100649.66
2023-01-02T21:59:15.074Z,100651.34
2023-01-02T22:01:42.608Z,100657.72
2023-01-02T22:04:11.676Z,100658.19
2023-01-02T22:06:57.115Z,100663.87
2023-01-02T22:09:28.151Z,100667.16
2023-01-02T22:11:55.503Z,100663.19
2023-01-02T22:14:30.430Z,100668.53
2023-01-02T22:17:06.023Z,100665.50
2023-01-02T22:19:33.609Z,100667.00
2023-01-02T22:22:01.576Z,100671.50
2023-01-02T22:24:29.031Z,100673.59
2023-01-02T22:26:58.165Z,100670.91
2023-01-02T22:29:33.139Z,100661.53
2023-01-02T22:32:11.799Z,100668.16
2023-01-02T22:34:43.341Z,100674.87
2023-01-02T22:37:13.656Z,100675.44
2023-01-02T22:39:43.308Z,100667.53
2023-01-02T22:42:59.687Z,100672.50
2023-01-02T22:45:27.096Z,100668.66
2023-01-02T22:47:58.570Z,100652.50
2023-01-02T22:50:28.553Z,100644.34
2023-01-02T22:52:56.097Z,100650.75
2023-01-02T22:55:24.016Z,100663.72
2023-01-02T22:57:52.158Z,100671.56
2023-01-02T23:00:22.243Z,100671.78
2023-01-02T23:02:50.107Z,100662.50
2023-01-02T23:05:19.109Z,100669.53
2023-01-02T23:07:46.635Z,100671.19
2023-01-02T23:10:14.173Z,100663.25
2023-01-02T23:12:41.837Z,100669.91
2023-01-02T23:15:11.350Z,100666.81
2023-01-02T23:17:57.744Z,100662.41
2023-01-02T23:20:26.113Z,100661.06
2023-01-02T23:22:53.498Z,100654.41
2023-01-02T23:25:21.011Z,100663.84
2023-01-02T23:27:48.745Z,100653.94
2023-01-02T23:30:16.194Z,100657.03
2023-01-02T23:32:45.189Z,100671.06
2023-01-02T23:35:12.831Z,100670.28
2023-01-02T23:37:40.199Z,100662.22
2023-01-02T23:40:08.293Z,100665.84
2023-01-02T23:42:35.940Z,100668.00
2023-01-02T23:45:03.453Z,100656.06
2023-01-02T23:47:31.358Z,100661.28
2023-01-02T23:49:59.057Z,100648.50
2023-01-02T23:52:26.430Z,100657.09
2023-01-02T23:54:53.747Z,100666.47
2023-01-02T23:57:21.405Z,100680.19
2023-01-02T23:59:48.732Z,100674.16
